Time;durP1;ratioP1;P1;durP2;ratioP2;P2;SDS_P1;SDS_P2;PMS_P1;PMS_P2;Temp;Humidity;BMP_temperature;BMP_pressure;BME280_temperature;BME280_humidity;BME280_pressure;Samples;Min_cycle;Max_cycle;Signal;HPM_P1;HPM_P2
2024/04/14 00:02:24;;;;;;;3.92;2.65;;;;;;;;;;5382231;26;20338;-78
2024/04/14 00:04:53;;;;;;;8.18;2.85;;;;;;;;;;5382597;26;20431;-78
2024/04/14 00:07:21;;;;;;;5.00;3.13;;;;;;;;;;5380369;26;20000;-78
2024/04/14 00:09:48;;;;;;;4.63;2.60;;;;;;;;;;5380631;26;20520;-78
2024/04/14 00:12:15;;;;;;;3.47;2.50;;;;;;;;;;5381710;26;20435;-79
2024/04/14 00:14:42;;;;;;;6.97;2.88;;;;;;;;;;5382097;26;20004;-78
2024/04/14 00:17:08;;;;;;;5.30;2.95;;;;;;;;;;5381834;26;19996;-78
2024/04/14 00:19:35;;;;;;;4.68;2.70;;;;;;;;;;5382558;26;20012;-79
2024/04/14 00:22:02;;;;;;;6.90;2.50;;;;;;;;;;5380577;26;20004;-78
2024/04/14 00:24:29;;;;;;;5.38;3.30;;;;;;;;;;5381978;26;20069;-79
2024/04/14 00:26:56;;;;;;;11.15;2.90;;;;;;;;;;5381812;26;20443;-79
2024/04/14 00:29:23;;;;;;;4.00;2.60;;;;;;;;;;5378572;26;19996;-79
2024/04/14 00:31:50;;;;;;;6.95;2.78;;;;;;;;;;5381987;26;20423;-79
2024/04/14 00:34:16;;;;;;;6.10;2.70;;;;;;;;;;5379830;26;20415;-79
2024/04/14 00:36:43;;;;;;;7.25;2.58;;;;;;;;;;5381984;26;19996;-79
2024/04/14 00:39:12;;;;;;;7.43;3.08;;;;;;;;;;5381533;26;20036;-79
2024/04/14 00:41:39;;;;;;;5.22;2.70;;;;;;;;;;5380095;26;20007;-78
2024/04/14 00:44:06;;;;;;;6.25;2.83;;;;;;;;;;5381466;26;20001;-78
2024/04/14 00:46:33;;;;;;;8.38;2.50;;;;;;;;;;5382350;26;20073;-79
2024/04/14 00:49:02;;;;;;;10.57;3.47;;;;;;;;;;5381717;26;20008;-79
2024/04/14 00:51:29;;;;;;;;;;;;;;;;;;5415824;26;20080;-79
2024/04/14 00:53:55;;;;;;;7.60;3.15;;;;;;;;;;5417272;26;19921;-79
2024/04/14 00:56:23;;;;;;;5.18;2.80;;;;;;;;;;5416864;26;19999;-77
2024/04/14 00:58:50;;;;;;;8.95;3.00;;;;;;;;;;5417277;26;20011;-79
2024/04/14 01:01:20;;;;;;;11.00;3.20;;;;;;;;;;5416703;26;20464;-79
2024/04/14 01:03:48;;;;;;;8.63;3.33;;;;;;;;;;5417137;26;19995;-78
2024/04/14 01:06:16;;;;;;;4.82;3.05;;;;;;;;;;5385717;26;20004;-79
2024/04/14 01:08:44;;;;;;;10.18;2.83;;;;;;;;;;5400730;26;20010;-79
2024/04/14 01:11:11;;;;;;;9.05;2.83;;;;;;;;;;5416575;26;19999;-78
2024/04/14 01:13:38;;;;;;;12.15;3.40;;;;;;;;;;5417122;26;20011;-79
2024/04/14 01:16:05;;;;;;;11.75;3.25;;;;;;;;;;5416638;26;20003;-77
2024/04/14 01:18:32;;;;;;;10.85;3.45;;;;;;;;;;5416853;26;20049;-79
2024/04/14 01:20:59;;;;;;;11.88;3.20;;;;;;;;;;5416919;26;20011;-79
2024/04/14 01:23:26;;;;;;;15.60;3.40;;;;;;;;;;5414516;26;20027;-78
2024/04/14 01:25:55;;;;;;;13.57;3.15;;;;;;;;;;5416763;26;19999;-79
2024/04/14 01:28:22;;;;;;;8.82;3.28;;;;;;;;;;5381942;26;20308;-78
2024/04/14 01:30:49;;;;;;;11.65;2.95;;;;;;;;;;5381307;26;20381;-79
2024/04/14 01:33:16;;;;;;;12.30;3.10;;;;;;;;;;5380723;26;20046;-78
2024/04/14 01:35:43;;;;;;;10.05;2.88;;;;;;;;;;5381196;26;19997;-77
2024/04/14 01:38:10;;;;;;;11.60;2.70;;;;;;;;;;5378836;26;20510;-79
2024/04/14 01:40:50;;;;;;;10.55;3.00;;;;;;;;;;5353381;26;20412;-79
2024/04/14 01:43:16;;;;;;;11.50;3.47;;;;;;;;;;5380682;26;20004;-78
2024/04/14 01:45:43;;;;;;;10.68;2.97;;;;;;;;;;5379208;26;20059;-78
2024/04/14 01:48:11;;;;;;;11.50;3.08;;;;;;;;;;5380366;26;20335;-78
2024/04/14 01:50:38;;;;;;;10.37;2.83;;;;;;;;;;5381230;26;20365;-77
2024/04/14 01:53:05;;;;;;;9.55;3.03;;;;;;;;;;5380596;26;20030;-78
2024/04/14 01:55:32;;;;;;;9.13;3.22;;;;;;;;;;5378939;26;20003;-79
2024/04/14 01:57:59;;;;;;;10.50;3.53;;;;;;;;;;5378975;26;20004;-79
2024/04/14 02:00:26;;;;;;;10.50;3.28;;;;;;;;;;5380448;26;20058;-78
2024/04/14 02:02:55;;;;;;;13.48;4.20;;;;;;;;;;5378719;26;20431;-78
2024/04/14 02:05:23;;;;;;;10.20;3.45;;;;;;;;;;5349437;26;20000;-79
2024/04/14 02:07:50;;;;;;;7.78;3.42;;;;;;;;;;5380710;26;20008;-79
2024/04/14 02:10:16;;;;;;;11.20;3.45;;;;;;;;;;5380258;26;20077;-78
2024/04/14 02:12:43;;;;;;;13.05;3.45;;;;;;;;;;5380555;26;20012;-78
2024/04/14 02:15:10;;;;;;;10.25;3.60;;;;;;;;;;5378321;26;20019;-77
2024/04/14 02:17:37;;;;;;;12.52;3.45;;;;;;;;;;5380484;26;20001;-80
2024/04/14 02:20:04;;;;;;;11.05;3.70;;;;;;;;;;5378603;26;20000;-78
2024/04/14 02:22:31;;;;;;;12.75;4.43;;;;;;;;;;5380187;26;20118;-79
2024/04/14 02:24:58;;;;;;;9.70;3.67;;;;;;;;;;5378655;26;20072;-78
2024/04/14 02:27:25;;;;;;;17.08;3.92;;;;;;;;;;5379308;26;19996;-78
2024/04/14 02:29:52;;;;;;;9.55;3.72;;;;;;;;;;5380118;26;20011;-79
2024/04/14 02:32:19;;;;;;;10.00;3.70;;;;;;;;;;5379705;26;20008;-79
2024/04/14 02:34:46;;;;;;;12.00;3.85;;;;;;;;;;5380439;26;20000;-78
2024/04/14 02:37:13;;;;;;;15.02;4.60;;;;;;;;;;5377849;26;20004;-79
2024/04/14 02:39:40;;;;;;;10.85;4.10;;;;;;;;;;5380191;26;20011;-79
2024/04/14 02:42:07;;;;;;;10.63;4.50;;;;;;;;;;5379669;26;20011;-79
2024/04/14 02:44:34;;;;;;;11.38;3.85;;;;;;;;;;5380193;26;20002;-78
2024/04/14 02:47:01;;;;;;;9.75;4.03;;;;;;;;;;5379877;26;20007;-79
2024/04/14 02:49:28;;;;;;;14.18;4.00;;;;;;;;;;5379529;26;20014;-78
2024/04/14 02:51:56;;;;;;;14.88;4.30;;;;;;;;;;5378959;26;20004;-79
2024/04/14 02:54:23;;;;;;;16.30;5.05;;;;;;;;;;5383129;26;20029;-78
2024/04/14 02:56:50;;;;;;;15.32;4.10;;;;;;;;;;5383232;26;20008;-79
2024/04/14 02:59:17;;;;;;;17.30;4.63;;;;;;;;;;5382970;26;20315;-79
2024/04/14 03:01:45;;;;;;;20.60;5.22;;;;;;;;;;5383425;26;20007;-77
2024/04/14 03:04:12;;;;;;;20.83;5.07;;;;;;;;;;5383002;26;19996;-79
2024/04/14 03:06:40;;;;;;;10.90;4.00;;;;;;;;;;5383277;26;20423;-79
2024/04/14 03:09:07;;;;;;;15.13;4.63;;;;;;;;;;5381780;26;20508;-78
2024/04/14 03:11:33;;;;;;;16.65;4.32;;;;;;;;;;5383436;26;20004;-78
2024/04/14 03:14:00;;;;;;;21.50;3.80;;;;;;;;;;5381400;26;20008;-78
2024/04/14 03:16:27;;;;;;;16.35;3.75;;;;;;;;;;5382617;26;20435;-79
2024/04/14 03:18:54;;;;;;;11.43;3.70;;;;;;;;;;5383333;26;19996;-79
2024/04/14 03:21:21;;;;;;;17.13;3.13;;;;;;;;;;5382659;26;19996;-79
2024/04/14 03:23:50;;;;;;;13.25;3.33;;;;;;;;;;5380998;26;20075;-78
2024/04/14 03:26:17;;;;;;;12.70;3.28;;;;;;;;;;5385401;26;20012;-78
2024/04/14 03:28:44;;;;;;;13.15;3.15;;;;;;;;;;5392063;26;20427;-79
2024/04/14 03:31:10;;;;;;;12.15;3.13;;;;;;;;;;5382450;26;20014;-79
2024/04/14 03:33:38;;;;;;;24.20;4.20;;;;;;;;;;5382947;26;20311;-79
2024/04/14 03:36:06;;;;;;;11.85;2.90;;;;;;;;;;5382394;26;20008;-79
2024/04/14 03:38:34;;;;;;;16.38;3.53;;;;;;;;;;5380959;26;20015;-78
2024/04/14 03:41:01;;;;;;;14.35;2.90;;;;;;;;;;5382866;26;20015;-79
2024/04/14 03:43:28;;;;;;;18.20;3.03;;;;;;;;;;5417898;26;20076;-79
2024/04/14 03:45:55;;;;;;;15.10;4.03;;;;;;;;;;5389094;26;20073;-79
2024/04/14 03:48:23;;;;;;;18.67;4.35;;;;;;;;;;5401853;26;20622;-79
2024/04/14 03:50:50;;;;;;;13.27;2.92;;;;;;;;;;5418260;26;19999;-79
2024/04/14 03:53:17;;;;;;;14.93;3.45;;;;;;;;;;5417718;26;20496;-78
2024/04/14 03:55:43;;;;;;;13.73;3.17;;;;;;;;;;5418147;26;20072;-79
2024/04/14 03:58:10;;;;;;;20.52;3.78;;;;;;;;;;5417639;26;20000;-79
2024/04/14 04:00:37;;;;;;;10.73;2.42;;;;;;;;;;5418333;26;20031;-79
2024/04/14 04:03:04;;;;;;;15.43;2.47;;;;;;;;;;5417448;26;19999;-78
2024/04/14 04:05:31;;;;;;;13.95;2.67;;;;;;;;;;5417847;26;20064;-79
2024/04/14 04:07:58;;;;;;;14.32;3.25;;;;;;;;;;5417900;26;20013;-78
2024/04/14 04:10:25;;;;;;;12.90;2.63;;;;;;;;;;5417740;26;20003;-78
2024/04/14 04:12:52;;;;;;;15.05;3.00;;;;;;;;;;5417845;26;20350;-78
2024/04/14 04:15:18;;;;;;;15.82;2.72;;;;;;;;;;5415598;26;19996;-79
2024/04/14 04:17:45;;;;;;;14.43;3.10;;;;;;;;;;5417796;26;19999;-78
2024/04/14 04:20:12;;;;;;;14.13;2.30;;;;;;;;;;5385952;26;20446;-78
2024/04/14 04:22:39;;;;;;;14.43;3.63;;;;;;;;;;5403047;26;20075;-78
2024/04/14 04:25:06;;;;;;;14.65;2.80;;;;;;;;;;5417434;26;20007;-79
2024/04/14 04:27:33;;;;;;;11.65;2.13;;;;;;;;;;5393713;26;20004;-79
2024/04/14 04:30:00;;;;;;;9.73;2.60;;;;;;;;;;5382174;26;20008;-79
2024/04/14 04:32:27;;;;;;;14.85;3.33;;;;;;;;;;5381938;26;20067;-79
2024/04/14 04:34:54;;;;;;;13.15;2.80;;;;;;;;;;5382182;26;20008;-78
2024/04/14 04:37:21;;;;;;;14.95;2.65;;;;;;;;;;5350546;26;20015;-79
2024/04/14 04:39:48;;;;;;;16.17;2.58;;;;;;;;;;5380260;26;20320;-79
2024/04/14 04:42:15;;;;;;;13.77;2.13;;;;;;;;;;5379813;26;19996;-77
2024/04/14 04:44:42;;;;;;;12.60;3.05;;;;;;;;;;5382010;26;20046;-79
2024/04/14 04:47:09;;;;;;;16.75;2.30;;;;;;;;;;5381562;26;20008;-79
2024/04/14 04:49:36;;;;;;;9.57;1.80;;;;;;;;;;5381871;26;20512;-78
2024/04/14 04:52:03;;;;;;;15.90;2.70;;;;;;;;;;5380061;26;20415;-79
2024/04/14 04:54:30;;;;;;;15.50;2.45;;;;;;;;;;5381409;26;20016;-79
2024/04/14 04:56:57;;;;;;;11.60;2.47;;;;;;;;;;5381857;26;20319;-77
2024/04/14 04:59:23;;;;;;;8.23;2.33;;;;;;;;;;5381166;26;20016;-78
2024/04/14 05:01:50;;;;;;;17.60;2.75;;;;;;;;;;5381507;26;20516;-79
2024/04/14 05:04:17;;;;;;;11.40;2.25;;;;;;;;;;5379693;26;20334;-78
2024/04/14 05:06:44;;;;;;;15.23;2.70;;;;;;;;;;5381602;26;20008;-78
2024/04/14 05:09:11;;;;;;;14.35;2.17;;;;;;;;;;5381199;26;20077;-79
2024/04/14 05:11:37;;;;;;;15.05;2.63;;;;;;;;;;5379975;26;20012;-78
2024/04/14 05:14:04;;;;;;;17.38;2.20;;;;;;;;;;5380641;26;20004;-79
2024/04/14 05:16:31;;;;;;;13.25;2.38;;;;;;;;;;5381054;26;20000;-79
2024/04/14 05:18:58;;;;;;;12.85;2.25;;;;;;;;;;5381362;26;20072;-78
2024/04/14 05:21:25;;;;;;;12.07;2.33;;;;;;;;;;5379391;26;20011;-79
2024/04/14 05:23:52;;;;;;;11.18;2.22;;;;;;;;;;5381856;26;20004;-78
2024/04/14 05:26:19;;;;;;;15.70;2.38;;;;;;;;;;5380816;26;20051;-78
2024/04/14 05:28:45;;;;;;;15.30;3.03;;;;;;;;;;5379611;26;20693;-77
2024/04/14 05:31:12;;;;;;;16.50;2.17;;;;;;;;;;5410511;26;20004;-78
2024/04/14 05:33:39;;;;;;;9.23;2.40;;;;;;;;;;5416824;26;20019;-79
2024/04/14 05:36:06;;;;;;;17.63;2.65;;;;;;;;;;5416376;26;20016;-78
2024/04/14 05:38:35;;;;;;;8.82;2.25;;;;;;;;;;5416553;26;20430;-78
2024/04/14 05:41:02;;;;;;;15.55;2.28;;;;;;;;;;5416847;26;20068;-79
2024/04/14 05:43:29;;;;;;;10.50;2.30;;;;;;;;;;5416038;26;20004;-78
2024/04/14 05:45:56;;;;;;;11.23;2.00;;;;;;;;;;5414729;26;20032;-78
2024/04/14 05:48:23;;;;;;;13.13;2.83;;;;;;;;;;5415980;26;19999;-78
2024/04/14 05:50:50;;;;;;;19.00;2.13;;;;;;;;;;5416378;26;20011;-79
2024/04/14 05:53:17;;;;;;;15.00;2.35;;;;;;;;;;5415756;26;19996;-78
2024/04/14 05:55:44;;;;;;;14.45;2.45;;;;;;;;;;5416371;26;20010;-79
2024/04/14 05:58:11;;;;;;;8.98;2.00;;;;;;;;;;5415643;26;20074;-78
2024/04/14 06:00:37;;;;;;;13.32;2.00;;;;;;;;;;5416413;26;20315;-79
2024/04/14 06:03:05;;;;;;;17.33;2.53;;;;;;;;;;5376416;26;19997;-79
2024/04/14 06:05:32;;;;;;;12.10;2.08;;;;;;;;;;5372883;26;20323;-77
2024/04/14 06:07:59;;;;;;;13.10;2.22;;;;;;;;;;5364615;26;20009;-80
2024/04/14 06:10:26;;;;;;;14.48;2.92;;;;;;;;;;5368957;26;20008;-77
2024/04/14 06:12:53;;;;;;;14.15;1.90;;;;;;;;;;5380605;26;20010;-79
2024/04/14 06:15:20;;;;;;;14.63;2.08;;;;;;;;;;5379918;26;20408;-79
2024/04/14 06:17:47;;;;;;;11.98;2.33;;;;;;;;;;5392706;26;20000;-79
2024/04/14 06:20:14;;;;;;;17.02;2.60;;;;;;;;;;5363486;26;20033;-78
2024/04/14 06:22:41;;;;;;;15.18;2.22;;;;;;;;;;5350028;26;20423;-79
2024/04/14 06:25:08;;;;;;;10.35;1.92;;;;;;;;;;5377705;26;19996;-79
2024/04/14 06:27:34;;;;;;;16.77;2.40;;;;;;;;;;5373262;26;20000;-79
2024/04/14 06:30:01;;;;;;;10.82;2.15;;;;;;;;;;5411145;26;19996;-79
2024/04/14 06:32:28;;;;;;;11.57;2.10;;;;;;;;;;5447774;26;20030;-79
2024/04/14 06:34:55;;;;;;;13.98;2.15;;;;;;;;;;5453788;26;19999;-79
2024/04/14 06:37:22;;;;;;;15.30;2.45;;;;;;;;;;5433130;26;20170;-79
2024/04/14 06:39:49;;;;;;;11.52;1.67;;;;;;;;;;5381897;26;19996;-79
2024/04/14 06:42:16;;;;;;;14.13;2.10;;;;;;;;;;5404352;26;20012;-80
2024/04/14 06:44:43;;;;;;;18.92;2.53;;;;;;;;;;5400622;26;20098;-79
2024/04/14 06:47:10;;;;;;;11.55;2.30;;;;;;;;;;5360191;26;20085;-79
2024/04/14 06:49:37;;;;;;;15.32;2.25;;;;;;;;;;5410140;26;20414;-79
2024/04/14 06:52:04;;;;;;;12.95;2.33;;;;;;;;;;5376354;26;20406;-78
2024/04/14 06:54:32;;;;;;;8.30;2.00;;;;;;;;;;5381420;26;20073;-79
2024/04/14 06:56:59;;;;;;;10.77;2.20;;;;;;;;;;5381401;26;20004;-79
2024/04/14 06:59:25;;;;;;;8.13;1.90;;;;;;;;;;5380934;26;19996;-79
2024/04/14 07:01:52;;;;;;;10.60;2.40;;;;;;;;;;5375417;26;20008;-79
2024/04/14 07:04:19;;;;;;;12.80;2.40;;;;;;;;;;5411342;26;20025;-82
2024/04/14 07:06:47;;;;;;;17.05;2.38;;;;;;;;;;5381864;26;20346;-80
2024/04/14 07:09:13;;;;;;;13.75;2.03;;;;;;;;;;5411151;26;20014;-79
2024/04/14 07:11:40;;;;;;;12.90;1.80;;;;;;;;;;5436903;26;20007;-80
2024/04/14 07:14:07;;;;;;;9.57;2.20;;;;;;;;;;5451894;26;20010;-79
2024/04/14 07:16:34;;;;;;;11.65;2.35;;;;;;;;;;5450719;26;20494;-79
2024/04/14 07:19:01;;;;;;;13.25;2.25;;;;;;;;;;5451695;26;20547;-79
2024/04/14 07:21:28;;;;;;;11.23;2.33;;;;;;;;;;5447303;26;19999;-79
2024/04/14 07:23:55;;;;;;;17.50;2.88;;;;;;;;;;5448837;26;20509;-80
2024/04/14 07:26:22;;;;;;;11.77;2.30;;;;;;;;;;5430652;26;19999;-80
2024/04/14 07:28:49;;;;;;;16.53;2.33;;;;;;;;;;5386750;26;20445;-82
2024/04/14 07:31:17;;;;;;;9.85;1.95;;;;;;;;;;5359851;26;20003;-80
2024/04/14 07:33:46;;;;;;;9.85;1.90;;;;;;;;;;5336257;26;20005;-79
2024/04/14 07:36:13;;;;;;;9.98;1.83;;;;;;;;;;5362602;26;20001;-81
2024/04/14 07:38:40;;;;;;;13.38;1.80;;;;;;;;;;5358785;26;20015;-77
2024/04/14 07:41:07;;;;;;;10.48;1.73;;;;;;;;;;5371780;26;20476;-78
2024/04/14 07:43:34;;;;;;;14.07;2.35;;;;;;;;;;5352726;26;20008;-80
2024/04/14 07:46:01;;;;;;;11.73;2.28;;;;;;;;;;5347572;26;20016;-79
2024/04/14 07:48:28;;;;;;;17.77;2.33;;;;;;;;;;5347344;26;20490;-81
2024/04/14 07:50:55;;;;;;;11.13;1.80;;;;;;;;;;5347472;26;20012;-81
2024/04/14 07:53:22;;;;;;;9.93;2.42;;;;;;;;;;5316469;26;20005;-81
2024/04/14 07:55:49;;;;;;;11.75;2.08;;;;;;;;;;5347634;26;20016;-80
2024/04/14 07:58:16;;;;;;;12.68;1.83;;;;;;;;;;5345159;26;20068;-80
2024/04/14 08:00:43;;;;;;;13.65;2.13;;;;;;;;;;5347422;26;20012;-80
2024/04/14 08:03:09;;;;;;;10.43;1.50;;;;;;;;;;5347100;26;20067;-80
2024/04/14 08:05:36;;;;;;;12.65;2.33;;;;;;;;;;5345327;26;19997;-80
2024/04/14 08:08:08;;;;;;;10.88;2.72;;;;;;;;;;5347009;26;20007;-81
2024/04/14 08:10:35;;;;;;;10.55;2.30;;;;;;;;;;5345688;26;19996;-81
2024/04/14 08:13:02;;;;;;;12.07;2.20;;;;;;;;;;5347539;26;20432;-80
2024/04/14 08:15:29;;;;;;;14.52;2.13;;;;;;;;;;5346859;26;20004;-81
2024/04/14 08:17:57;;;;;;;14.15;2.25;;;;;;;;;;5345438;26;20001;-80
2024/04/14 08:20:24;;;;;;;13.32;2.70;;;;;;;;;;5345176;26;20070;-80
2024/04/14 08:22:51;;;;;;;15.13;2.30;;;;;;;;;;5345245;26;20304;-80
2024/04/14 08:25:18;;;;;;;16.13;1.90;;;;;;;;;;5344807;26;20017;-79
2024/04/14 08:27:45;;;;;;;10.55;1.85;;;;;;;;;;5368781;26;20007;-80
2024/04/14 08:30:12;;;;;;;12.77;2.17;;;;;;;;;;5381573;26;20016;-80
2024/04/14 08:32:39;;;;;;;13.63;2.00;;;;;;;;;;5382225;26;20012;-81
2024/04/14 08:35:06;;;;;;;11.07;2.05;;;;;;;;;;5381690;26;20738;-80
2024/04/14 08:37:34;;;;;;;14.63;2.08;;;;;;;;;;5381992;26;20010;-80
2024/04/14 08:40:02;;;;;;;12.63;2.55;;;;;;;;;;5381922;26;20032;-81
2024/04/14 08:42:29;;;;;;;7.35;1.90;;;;;;;;;;5379904;26;20004;-81
2024/04/14 08:44:58;;;;;;;11.85;2.03;;;;;;;;;;5381938;26;19996;-79
2024/04/14 08:47:27;;;;;;;14.98;2.63;;;;;;;;;;5379407;26;20047;-80
2024/04/14 08:49:55;;;;;;;11.55;1.90;;;;;;;;;;5380642;26;20000;-80
2024/04/14 08:52:24;;;;;;;14.02;2.30;;;;;;;;;;5381500;26;20073;-80
2024/04/14 08:54:50;;;;;;;11.30;2.28;;;;;;;;;;5380396;26;20441;-80
2024/04/14 08:57:18;;;;;;;15.13;2.15;;;;;;;;;;5379355;26;20004;-80
2024/04/14 08:59:49;;;;;;;14.00;2.42;;;;;;;;;;5379878;26;20008;-80
2024/04/14 09:02:16;;;;;;;11.13;2.20;;;;;;;;;;5379600;26;20007;-81
2024/04/14 09:04:45;;;;;;;12.00;2.00;;;;;;;;;;5381736;26;20008;-80
2024/04/14 09:07:12;;;;;;;10.90;2.20;;;;;;;;;;5379157;26;20008;-80
2024/04/14 09:09:39;;;;;;;11.18;1.95;;;;;;;;;;5381307;26;20010;-80
2024/04/14 09:12:10;;;;;;;10.23;2.03;;;;;;;;;;5381164;26;20004;-79
2024/04/14 09:14:37;;;;;;;11.68;2.22;;;;;;;;;;5379795;26;20460;-80
2024/04/14 09:17:04;;;;;;;12.77;2.03;;;;;;;;;;5380994;26;20497;-78
2024/04/14 09:19:34;;;;;;;12.70;2.95;;;;;;;;;;5379549;26;20008;-81
2024/04/14 09:22:06;;;;;;;11.05;2.08;;;;;;;;;;5380953;26;20000;-80
2024/04/14 09:24:33;;;;;;;13.32;2.40;;;;;;;;;;5379441;26;20015;-79
2024/04/14 09:27:03;;;;;;;7.50;1.75;;;;;;;;;;5369952;26;20008;-81
2024/04/14 09:29:30;;;;;;;11.77;1.85;;;;;;;;;;5380959;26;20488;-80
2024/04/14 09:31:57;;;;;;;15.63;2.45;;;;;;;;;;5380932;26;20048;-80
2024/04/14 09:34:27;;;;;;;10.00;2.55;;;;;;;;;;5380880;26;20000;-80
2024/04/14 09:36:54;;;;;;;14.10;2.55;;;;;;;;;;5379211;26;20004;-80
2024/04/14 09:39:21;;;;;;;15.43;2.53;;;;;;;;;;5380562;26;19996;-81
2024/04/14 09:41:48;;;;;;;13.57;2.15;;;;;;;;;;5380721;26;20000;-80
2024/04/14 09:44:16;;;;;;;9.48;2.22;;;;;;;;;;5380564;26;20330;-80
2024/04/14 09:46:49;;;;;;;9.07;1.67;;;;;;;;;;5381022;26;19996;-81
2024/04/14 09:49:17;;;;;;;9.02;2.72;;;;;;;;;;5380597;26;20012;-80
2024/04/14 09:51:45;;;;;;;12.25;2.75;;;;;;;;;;5381057;26;20028;-80
2024/04/14 09:54:16;;;;;;;11.43;2.45;;;;;;;;;;5378343;26;20032;-79
2024/04/14 09:56:43;;;;;;;15.80;2.83;;;;;;;;;;5380918;26;20073;-80
2024/04/14 09:59:10;;;;;;;12.27;2.35;;;;;;;;;;5380008;26;20004;-80
2024/04/14 10:01:40;;;;;;;14.30;2.67;;;;;;;;;;5380660;26;20012;-80
2024/04/14 10:04:08;;;;;;;14.35;2.40;;;;;;;;;;5382033;26;19996;-79
2024/04/14 10:06:37;;;;;;;17.77;2.45;;;;;;;;;;5383654;26;20000;-80
2024/04/14 10:09:04;;;;;;;16.02;2.67;;;;;;;;;;5381398;26;20015;-79
2024/04/14 10:11:31;;;;;;;10.55;2.33;;;;;;;;;;5383849;26;20011;-81
2024/04/14 10:14:00;;;;;;;10.50;2.63;;;;;;;;;;5383846;26;20043;-80
2024/04/14 10:16:28;;;;;;;10.93;1.90;;;;;;;;;;5383392;26;20005;-80
2024/04/14 10:19:02;;;;;;;12.82;2.08;;;;;;;;;;5382138;26;20011;-80
2024/04/14 10:21:30;;;;;;;13.02;2.33;;;;;;;;;;5395843;26;20027;-79
2024/04/14 10:23:57;;;;;;;8.95;1.80;;;;;;;;;;5383606;26;20032;-81
2024/04/14 10:26:24;;;;;;;14.93;1.70;;;;;;;;;;5385684;26;20439;-80
2024/04/14 10:28:52;;;;;;;13.80;2.10;;;;;;;;;;5395083;26;19996;-79
2024/04/14 10:31:30;;;;;;;10.55;1.92;;;;;;;;;;5418655;26;20069;-79
2024/04/14 10:34:04;;;;;;;15.85;2.28;;;;;;;;;;5399259;26;20007;-80
2024/04/14 10:36:36;;;;;;;12.63;2.10;;;;;;;;;;5383417;26;20036;-80
2024/04/14 10:39:06;;;;;;;17.90;3.10;;;;;;;;;;5383497;26;20004;-79
2024/04/14 10:41:35;;;;;;;19.85;3.22;;;;;;;;;;5383513;26;20004;-79
2024/04/14 10:44:01;;;;;;;17.83;2.55;;;;;;;;;;5383713;26;20004;-80
2024/04/14 10:46:28;;;;;;;14.77;2.92;;;;;;;;;;5352181;26;20012;-80
2024/04/14 10:48:55;;;;;;;16.20;3.25;;;;;;;;;;5382118;26;20004;-80
2024/04/14 10:51:22;;;;;;;12.63;2.50;;;;;;;;;;5381446;26;20008;-79
2024/04/14 10:53:52;;;;;;;11.32;2.13;;;;;;;;;;5383485;26;19996;-80
2024/04/14 10:56:20;;;;;;;20.65;3.35;;;;;;;;;;5351967;26;20308;-79
2024/04/14 10:58:47;;;;;;;17.42;2.70;;;;;;;;;;5397359;26;20009;-79
2024/04/14 11:01:15;;;;;;;13.68;2.50;;;;;;;;;;5398576;26;20071;-79
2024/04/14 11:03:42;;;;;;;13.55;2.28;;;;;;;;;;5374494;26;20000;-88
2024/04/14 11:06:09;;;;;;;17.58;3.03;;;;;;;;;;5379912;26;20439;-81
2024/04/14 11:08:38;;;;;;;17.25;2.42;;;;;;;;;;5382268;26;20004;-81
2024/04/14 11:11:07;;;;;;;18.60;2.67;;;;;;;;;;5380511;26;20450;-78
2024/04/14 11:13:34;;;;;;;12.93;2.38;;;;;;;;;;5381674;26;20034;-80
2024/04/14 11:16:02;;;;;;;15.38;2.28;;;;;;;;;;5377156;26;20004;-80
2024/04/14 11:18:30;;;;;;;13.82;2.55;;;;;;;;;;5410619;26;20007;-80
2024/04/14 11:20:57;;;;;;;13.55;2.50;;;;;;;;;;5416594;26;20003;-81
2024/04/14 11:23:25;;;;;;;14.20;2.55;;;;;;;;;;5415324;26;20445;-80
2024/04/14 11:25:53;;;;;;;16.13;3.20;;;;;;;;;;5416457;26;20035;-80
2024/04/14 11:28:21;;;;;;;17.23;2.38;;;;;;;;;;5408229;26;20008;-81
2024/04/14 11:30:52;;;;;;;17.67;2.63;;;;;;;;;;5381297;26;20077;-78
2024/04/14 11:33:22;;;;;;;19.42;2.42;;;;;;;;;;5429541;26;20010;-80
2024/04/14 11:36:00;;;;;;;18.58;2.78;;;;;;;;;;5420863;26;20000;-80
2024/04/14 11:38:28;;;;;;;10.45;2.40;;;;;;;;;;5394817;26;20019;-80
2024/04/14 11:40:55;;;;;;;10.87;1.73;;;;;;;;;;5450824;26;20002;-80
2024/04/14 11:43:22;;;;;;;9.18;1.90;;;;;;;;;;5403067;26;20005;-80
2024/04/14 11:45:49;;;;;;;9.82;2.17;;;;;;;;;;5421574;26;20015;-81
2024/04/14 11:48:17;;;;;;;13.45;1.95;;;;;;;;;;5378943;26;19996;-81
2024/04/14 11:50:44;;;;;;;12.35;2.60;;;;;;;;;;5365714;26;20000;-80
2024/04/14 11:53:11;;;;;;;9.95;2.15;;;;;;;;;;5380100;26;20412;-79
2024/04/14 11:55:38;;;;;;;18.92;2.33;;;;;;;;;;5378040;26;20005;-80
2024/04/14 11:58:04;;;;;;;16.23;2.28;;;;;;;;;;5378298;26;20008;-78
2024/04/14 12:00:32;;;;;;;8.10;1.92;;;;;;;;;;5378251;26;20010;-80
2024/04/14 12:02:59;;;;;;;11.75;1.75;;;;;;;;;;5380074;26;20028;-80
2024/04/14 12:05:26;;;;;;;13.32;2.35;;;;;;;;;;5380357;26;20007;-80
2024/04/14 12:07:53;;;;;;;12.23;1.90;;;;;;;;;;5379960;26;20004;-80
2024/04/14 12:10:20;;;;;;;16.65;2.50;;;;;;;;;;5411913;26;19998;-80
2024/04/14 12:12:47;;;;;;;14.75;2.15;;;;;;;;;;5414207;26;20008;-80
2024/04/14 12:15:14;;;;;;;10.77;2.07;;;;;;;;;;5389805;26;20333;-81
2024/04/14 12:17:41;;;;;;;24.67;2.80;;;;;;;;;;5414940;26;20000;-81
2024/04/14 12:20:09;;;;;;;13.50;2.25;;;;;;;;;;5410468;26;20014;-79
2024/04/14 12:22:36;;;;;;;14.52;2.05;;;;;;;;;;5414430;26;20077;-81
2024/04/14 12:25:05;;;;;;;18.48;3.03;;;;;;;;;;5412168;26;20000;-80
2024/04/14 12:27:32;;;;;;;12.25;2.50;;;;;;;;;;5389712;26;20015;-81
2024/04/14 12:29:59;;;;;;;12.18;2.28;;;;;;;;;;5384507;26;20015;-79
2024/04/14 12:32:27;;;;;;;16.02;2.75;;;;;;;;;;5403350;26;20012;-81
2024/04/14 12:34:54;;;;;;;12.27;1.95;;;;;;;;;;5407601;26;20023;-80
2024/04/14 12:37:21;;;;;;;12.43;2.58;;;;;;;;;;5413630;26;19995;-80
2024/04/14 12:39:51;;;;;;;14.95;2.03;;;;;;;;;;5402956;26;20012;-80
2024/04/14 12:42:18;;;;;;;12.93;2.47;;;;;;;;;;5381782;26;20377;-79
2024/04/14 12:44:45;;;;;;;12.95;2.20;;;;;;;;;;5409362;26;19999;-80
2024/04/14 12:47:12;;;;;;;10.15;2.47;;;;;;;;;;5414963;26;20084;-80
2024/04/14 12:49:39;;;;;;;19.65;2.95;;;;;;;;;;5415188;26;20006;-79
2024/04/14 12:52:06;;;;;;;13.02;2.33;;;;;;;;;;5388456;26;20007;-80
2024/04/14 12:54:33;;;;;;;12.38;2.28;;;;;;;;;;5379309;26;20003;-80
2024/04/14 12:57:00;;;;;;;13.30;2.47;;;;;;;;;;5343310;26;20036;-81
2024/04/14 12:59:26;;;;;;;11.77;2.40;;;;;;;;;;5375751;26;20004;-80
2024/04/14 13:01:53;;;;;;;16.60;2.97;;;;;;;;;;5380065;26;20076;-81
2024/04/14 13:04:21;;;;;;;14.00;2.60;;;;;;;;;;5379353;26;20012;-80
2024/04/14 13:06:48;;;;;;;12.20;2.45;;;;;;;;;;5379495;26;20015;-79
2024/04/14 13:09:15;;;;;;;13.70;2.35;;;;;;;;;;5403352;26;20432;-80
2024/04/14 13:11:42;;;;;;;10.75;2.72;;;;;;;;;;5403602;26;20007;-80
2024/04/14 13:14:10;;;;;;;11.43;2.40;;;;;;;;;;5412700;26;20011;-81
2024/04/14 13:16:37;;;;;;;17.85;2.63;;;;;;;;;;5407546;26;19996;-80
2024/04/14 13:19:04;;;;;;;11.20;2.28;;;;;;;;;;5391653;26;20000;-78
2024/04/14 13:21:33;;;;;;;11.23;2.25;;;;;;;;;;5411461;26;20015;-80
2024/04/14 13:24:00;;;;;;;;;;;;;;;;;;5415417;26;20072;-80
2024/04/14 13:26:27;;;;;;;16.83;2.63;;;;;;;;;;5411576;26;19931;-80
2024/04/14 13:28:54;;;;;;;14.52;2.78;;;;;;;;;;5397211;26;20003;-80
2024/04/14 13:31:21;;;;;;;11.88;2.63;;;;;;;;;;5383330;26;20473;-79
2024/04/14 13:33:48;;;;;;;13.93;2.28;;;;;;;;;;5411967;26;19999;-80
2024/04/14 13:36:15;;;;;;;14.07;2.55;;;;;;;;;;5413358;26;20069;-80
2024/04/14 13:38:42;;;;;;;16.58;2.22;;;;;;;;;;5376560;26;20465;-81
2024/04/14 13:41:10;;;;;;;10.60;2.20;;;;;;;;;;5394846;26;20077;-80
2024/04/14 13:43:37;;;;;;;17.33;2.17;;;;;;;;;;5414328;26;20444;-81
2024/04/14 13:46:04;;;;;;;9.95;1.98;;;;;;;;;;5414729;26;20072;-81
2024/04/14 13:48:32;;;;;;;12.82;2.33;;;;;;;;;;5362547;26;20335;-81
2024/04/14 13:50:59;;;;;;;13.68;2.08;;;;;;;;;;5400500;26;20004;-80
2024/04/14 13:53:25;;;;;;;10.65;1.85;;;;;;;;;;5411918;26;20372;-80
2024/04/14 13:55:52;;;;;;;13.95;2.15;;;;;;;;;;5350788;26;20367;-81
2024/04/14 13:58:19;;;;;;;14.20;1.98;;;;;;;;;;5376436;26;20007;-81
2024/04/14 14:00:47;;;;;;;12.73;2.10;;;;;;;;;;5378857;26;20443;-81
2024/04/14 14:03:15;;;;;;;12.85;1.95;;;;;;;;;;5378510;26;20007;-80
2024/04/14 14:05:41;;;;;;;11.93;2.25;;;;;;;;;;5378974;26;20012;-80
2024/04/14 14:08:08;;;;;;;11.65;2.33;;;;;;;;;;5378339;26;20000;-80
2024/04/14 14:10:35;;;;;;;13.95;2.20;;;;;;;;;;5378405;26;20314;-84
2024/04/14 14:13:02;;;;;;;14.68;2.30;;;;;;;;;;5377130;26;20012;-84
2024/04/14 14:15:29;;;;;;;10.70;2.45;;;;;;;;;;5436528;26;20046;-82
2024/04/14 14:17:56;;;;;;;15.48;2.08;;;;;;;;;;5447867;26;20009;-79
2024/04/14 14:20:23;;;;;;;14.18;2.47;;;;;;;;;;5422338;26;20008;-77
2024/04/14 14:22:50;;;;;;;10.93;2.10;;;;;;;;;;5412987;26;20011;-77
2024/04/14 14:25:16;;;;;;;14.18;2.42;;;;;;;;;;5412720;26;20004;-78
2024/04/14 14:27:43;;;;;;;10.35;2.22;;;;;;;;;;5390832;26;20012;-77
2024/04/14 14:30:10;;;;;;;10.80;1.60;;;;;;;;;;5376207;26;20001;-77
2024/04/14 14:32:39;;;;;;;11.98;1.85;;;;;;;;;;5380257;26;20001;-77
2024/04/14 14:37:52;;;;;;;10.63;2.30;;;;;;;;;;5380226;26;20008;-77